Time;durP1;ratioP1;P1;durP2;ratioP2;P2;SDS_P1;SDS_P2;PMS_P1;PMS_P2;Temp;Humidity;BMP_temperature;BMP_pressure;BME280_temperature;BME280_humidity;BME280_pressure;Samples;Min_cycle;Max_cycle;Signal;HPM_P1;HPM_P2
2022/12/13 00:01:54;;;;;;;42.30;21.20;;;;;;;;;;5054985;28;20428;-73
2022/12/13 00:04:22;;;;;;;36.22;19.20;;;;;;;;;;5057945;28;20076;-73
2022/12/13 00:06:49;;;;;;;40.22;20.48;;;;;;;;;;5049932;28;20059;-73
2022/12/13 00:09:16;;;;;;;44.10;21.45;;;;;;;;;;5068010;28;20052;-72
2022/12/13 00:11:43;;;;;;;35.72;19.42;;;;;;;;;;5074294;28;20505;-72
2022/12/13 00:14:12;;;;;;;38.22;21.35;;;;;;;;;;5045330;28;20145;-72
2022/12/13 00:16:39;;;;;;;37.08;22.02;;;;;;;;;;5044486;28;20052;-72
2022/12/13 00:19:05;;;;;;;44.25;21.05;;;;;;;;;;5044466;28;20064;-71
2022/12/13 00:21:32;;;;;;;42.10;21.95;;;;;;;;;;5044742;28;20546;-71
2022/12/13 00:23:59;;;;;;;41.55;21.80;;;;;;;;;;5060520;28;20146;-71
2022/12/13 00:26:27;;;;;;;46.08;21.98;;;;;;;;;;5064215;28;20144;-72
2022/12/13 00:28:53;;;;;;;40.50;21.33;;;;;;;;;;5062844;28;20091;-71
2022/12/13 00:31:21;;;;;;;37.25;20.95;;;;;;;;;;5044681;28;20581;-72
2022/12/13 00:34:07;;;;;;;45.85;20.85;;;;;;;;;;5054985;28;20134;-71
2022/12/13 00:36:34;;;;;;;41.72;19.95;;;;;;;;;;5044133;28;20426;-71
2022/12/13 00:39:00;;;;;;;38.93;20.97;;;;;;;;;;5044007;28;20059;-72
2022/12/13 00:41:29;;;;;;;38.23;20.27;;;;;;;;;;5054571;28;20077;-72
2022/12/13 00:43:55;;;;;;;42.38;21.20;;;;;;;;;;5057888;28;20392;-72
2022/12/13 00:46:22;;;;;;;41.08;21.38;;;;;;;;;;5063998;28;20472;-72
2022/12/13 00:48:52;;;;;;;38.75;22.60;;;;;;;;;;5072612;28;20083;-72
2022/12/13 00:51:22;;;;;;;39.72;21.23;;;;;;;;;;5049549;28;20045;-71
2022/12/13 00:53:48;;;;;;;39.67;22.05;;;;;;;;;;5065377;28;20044;-71
2022/12/13 00:56:16;;;;;;;36.30;20.33;;;;;;;;;;5084658;28;20049;-71
2022/12/13 00:58:43;;;;;;;40.83;21.08;;;;;;;;;;5054730;28;20080;-71
2022/12/13 01:01:18;;;;;;;41.78;21.38;;;;;;;;;;5063324;28;20144;-71
2022/12/13 01:03:44;;;;;;;40.03;20.77;;;;;;;;;;5063669;28;20053;-71
2022/12/13 01:06:22;;;;;;;41.42;20.75;;;;;;;;;;5042145;28;20046;-72
2022/12/13 01:08:48;;;;;;;39.55;19.92;;;;;;;;;;5043965;28;20056;-71
2022/12/13 01:11:14;;;;;;;34.10;17.30;;;;;;;;;;5043146;28;20136;-73
2022/12/13 01:13:41;;;;;;;37.95;20.02;;;;;;;;;;5043963;28;20057;-73
2022/12/13 01:16:09;;;;;;;39.50;20.42;;;;;;;;;;5061371;28;20052;-73
2022/12/13 01:18:36;;;;;;;43.45;19.60;;;;;;;;;;5066126;28;20051;-73
2022/12/13 01:21:04;;;;;;;35.97;19.63;;;;;;;;;;5082893;28;20103;-73
2022/12/13 01:23:30;;;;;;;34.72;19.88;;;;;;;;;;5079996;28;20064;-73
2022/12/13 01:25:57;;;;;;;41.65;20.00;;;;;;;;;;5061898;28;20060;-73
2022/12/13 01:28:23;;;;;;;34.40;19.35;;;;;;;;;;5042541;28;20084;-74
2022/12/13 01:30:54;;;;;;;44.25;20.70;;;;;;;;;;5043043;28;20579;-73
2022/12/13 01:33:21;;;;;;;39.23;19.83;;;;;;;;;;5043141;28;20060;-73
2022/12/13 01:35:47;;;;;;;36.70;18.73;;;;;;;;;;5044396;28;20515;-73
2022/12/13 01:38:13;;;;;;;37.58;20.17;;;;;;;;;;5069186;28;20504;-73
2022/12/13 01:40:42;;;;;;;35.15;18.17;;;;;;;;;;5063757;28;20207;-73
2022/12/13 01:43:11;;;;;;;33.53;19.10;;;;;;;;;;5063587;28;20530;-73
2022/12/13 01:45:40;;;;;;;35.92;20.08;;;;;;;;;;5063326;28;20527;-73
2022/12/13 01:48:15;;;;;;;39.73;21.20;;;;;;;;;;5062340;28;20055;-74
2022/12/13 01:50:43;;;;;;;35.97;19.90;;;;;;;;;;5060912;28;20126;-73
2022/12/13 01:53:13;;;;;;;39.13;21.33;;;;;;;;;;5062615;28;20057;-73
2022/12/13 01:55:42;;;;;;;36.90;21.05;;;;;;;;;;5063237;28;20053;-73
2022/12/13 01:58:11;;;;;;;38.45;20.55;;;;;;;;;;5063154;28;20041;-73
2022/12/13 02:00:38;;;;;;;34.50;20.47;;;;;;;;;;5062045;28;20470;-72
2022/12/13 02:03:06;;;;;;;38.77;20.07;;;;;;;;;;5046816;28;20412;-73
2022/12/13 02:05:39;;;;;;;38.33;19.77;;;;;;;;;;5062464;28;20061;-72
2022/12/13 02:08:07;;;;;;;39.97;21.33;;;;;;;;;;5059103;28;20059;-72
2022/12/13 02:10:33;;;;;;;39.28;21.33;;;;;;;;;;5042694;28;20163;-72
2022/12/13 02:12:59;;;;;;;35.67;18.77;;;;;;;;;;5055402;28;20060;-72
2022/12/13 02:15:30;;;;;;;34.88;19.17;;;;;;;;;;5062852;28;20060;-73
2022/12/13 02:18:13;;;;;;;35.85;18.90;;;;;;;;;;5046405;28;20057;-73
2022/12/13 02:20:58;;;;;;;32.42;19.58;;;;;;;;;;5049451;28;20045;-73
2022/12/13 02:23:33;;;;;;;38.83;19.77;;;;;;;;;;5059346;28;20514;-73
2022/12/13 02:26:06;;;;;;;33.45;18.42;;;;;;;;;;5061727;28;20049;-73
2022/12/13 02:28:44;;;;;;;40.27;19.87;;;;;;;;;;5060755;28;20049;-73
2022/12/13 02:31:21;;;;;;;40.38;21.58;;;;;;;;;;5050819;28;20057;-72
2022/12/13 02:33:48;;;;;;;34.67;18.43;;;;;;;;;;5062771;28;20052;-73
2022/12/13 02:36:14;;;;;;;37.20;20.30;;;;;;;;;;5062976;28;20553;-73
2022/12/13 02:38:41;;;;;;;34.97;18.53;;;;;;;;;;5062772;28;20512;-73
2022/12/13 02:41:22;;;;;;;37.08;19.95;;;;;;;;;;5062840;28;20136;-73
2022/12/13 02:43:54;;;;;;;32.97;19.40;;;;;;;;;;5046316;28;20049;-73
2022/12/13 02:46:28;;;;;;;32.83;19.42;;;;;;;;;;5053666;28;20099;-72
2022/12/13 02:48:55;;;;;;;41.50;18.85;;;;;;;;;;5062170;28;20045;-73
2022/12/13 02:51:22;;;;;;;32.07;18.03;;;;;;;;;;5062337;28;20507;-73
2022/12/13 02:53:48;;;;;;;32.60;19.17;;;;;;;;;;5063084;28;20132;-74
2022/12/13 02:56:15;;;;;;;36.70;18.87;;;;;;;;;;5060133;28;20144;-72
2022/12/13 02:58:46;;;;;;;31.77;16.77;;;;;;;;;;5051098;28;20158;-73
2022/12/13 03:01:12;;;;;;;33.17;17.83;;;;;;;;;;5042801;28;20060;-73
2022/12/13 03:03:54;;;;;;;41.45;18.88;;;;;;;;;;5042193;28;20054;-72
2022/12/13 03:06:59;;;;;;;34.03;18.77;;;;;;;;;;5072210;28;20124;-72
2022/12/13 03:09:32;;;;;;;37.72;18.65;;;;;;;;;;4998655;28;20054;-72
2022/12/13 03:15:06;;;;;;;33.23;18.37;;;;;;;;;;5018720;28;20161;-73
2022/12/13 03:17:37;;;;;;;35.57;18.97;;;;;;;;;;5017304;28;20552;-73
2022/12/13 03:20:04;;;;;;;38.25;18.10;;;;;;;;;;5019240;28;20050;-73
2022/12/13 03:22:48;;;;;;;32.37;17.70;;;;;;;;;;5018777;28;20463;-72
2022/12/13 03:25:14;;;;;;;32.73;16.90;;;;;;;;;;5017859;28;20042;-72
2022/12/13 03:27:58;;;;;;;33.70;17.87;;;;;;;;;;5014225;28;20082;-72
2022/12/13 03:30:27;;;;;;;34.10;18.08;;;;;;;;;;5014692;28;20133;-72
2022/12/13 03:32:54;;;;;;;38.07;19.27;;;;;;;;;;5019141;28;20050;-73
2022/12/13 03:35:20;;;;;;;33.70;17.65;;;;;;;;;;5017211;28;20075;-72
2022/12/13 03:37:48;;;;;;;33.20;19.57;;;;;;;;;;5002343;28;20061;-73
2022/12/13 03:40:15;;;;;;;34.10;18.47;;;;;;;;;;5018286;28;20085;-72
2022/12/13 03:42:41;;;;;;;36.03;18.37;;;;;;;;;;5021995;28;20512;-73
2022/12/13 03:45:07;;;;;;;29.40;16.90;;;;;;;;;;5032091;28;20061;-73
2022/12/13 03:47:34;;;;;;;38.55;19.05;;;;;;;;;;5045068;28;20045;-72
2022/12/13 03:50:00;;;;;;;37.73;19.83;;;;;;;;;;5063152;28;20766;-73
2022/12/13 03:52:46;;;;;;;38.90;18.83;;;;;;;;;;5061833;28;20057;-73
2022/12/13 03:55:13;;;;;;;33.53;18.17;;;;;;;;;;5064335;28;20643;-72
2022/12/13 03:57:40;;;;;;;31.50;16.50;;;;;;;;;;5066119;28;20057;-73
2022/12/13 04:00:07;;;;;;;32.80;17.80;;;;;;;;;;5064980;28;20057;-73
2022/12/13 04:02:33;;;;;;;33.97;17.87;;;;;;;;;;5065003;28;20569;-73
2022/12/13 04:05:00;;;;;;;35.37;18.67;;;;;;;;;;5063157;28;20079;-73
2022/12/13 04:07:26;;;;;;;32.80;16.80;;;;;;;;;;5057600;28;20049;-73
2022/12/13 04:09:59;;;;;;;32.97;17.70;;;;;;;;;;5065140;28;20052;-73
2022/12/13 04:15:14;;;;;;;35.33;18.60;;;;;;;;;;5064410;28;20055;-72
2022/12/13 04:17:41;;;;;;;31.37;17.87;;;;;;;;;;5064370;28;20045;-72
2022/12/13 04:20:08;;;;;;;35.07;18.23;;;;;;;;;;5062789;28;20499;-73
2022/12/13 04:22:34;;;;;;;38.08;18.02;;;;;;;;;;5062708;28;20128;-73
2022/12/13 04:25:00;;;;;;;30.92;16.52;;;;;;;;;;5056308;28;20100;-73
2022/12/13 04:27:27;;;;;;;35.30;16.10;;;;;;;;;;5058180;28;20072;-73
2022/12/13 04:29:53;;;;;;;31.97;17.23;;;;;;;;;;5064438;28;20049;-73
2022/12/13 04:32:19;;;;;;;35.40;17.37;;;;;;;;;;5064937;28;20049;-73
2022/12/13 04:34:52;;;;;;;31.13;16.53;;;;;;;;;;5062241;28;20056;-73
2022/12/13 04:37:26;;;;;;;28.83;16.73;;;;;;;;;;5063910;28;20053;-73
2022/12/13 04:39:53;;;;;;;28.43;17.27;;;;;;;;;;5063640;28;20139;-74
2022/12/13 04:42:26;;;;;;;30.43;17.03;;;;;;;;;;5063339;28;20072;-73
2022/12/13 04:44:53;;;;;;;31.63;16.07;;;;;;;;;;5064765;28;20035;-73
2022/12/13 04:47:19;;;;;;;26.60;15.77;;;;;;;;;;5064190;28;20180;-73
2022/12/13 04:49:46;;;;;;;28.27;16.50;;;;;;;;;;5045395;28;20054;-73
2022/12/13 04:52:13;;;;;;;31.33;17.00;;;;;;;;;;5062243;28;20497;-73
2022/12/13 04:54:47;;;;;;;32.53;16.98;;;;;;;;;;5063564;28;20450;-73
2022/12/13 04:57:21;;;;;;;34.23;17.50;;;;;;;;;;5064034;28;20053;-73
2022/12/13 04:59:47;;;;;;;30.20;17.03;;;;;;;;;;5061704;28;20590;-73
2022/12/13 05:02:14;;;;;;;36.30;17.40;;;;;;;;;;5059561;28;20585;-73
2022/12/13 05:04:49;;;;;;;30.30;17.85;;;;;;;;;;5063894;28;20057;-73
2022/12/13 05:07:20;;;;;;;32.50;16.83;;;;;;;;;;5064637;28;20088;-73
2022/12/13 05:09:46;;;;;;;30.33;15.90;;;;;;;;;;5064661;28;20049;-73
2022/12/13 05:12:13;;;;;;;28.30;15.87;;;;;;;;;;5055438;28;20586;-73
2022/12/13 05:14:49;;;;;;;28.63;16.93;;;;;;;;;;5060976;28;20045;-73
2022/12/13 05:17:15;;;;;;;32.03;16.73;;;;;;;;;;5062730;28;20059;-72
2022/12/13 05:19:41;;;;;;;36.20;17.47;;;;;;;;;;5063938;28;20095;-72
2022/12/13 05:22:14;;;;;;;28.63;16.30;;;;;;;;;;5062486;28;20045;-73
2022/12/13 05:24:45;;;;;;;29.27;16.53;;;;;;;;;;5062112;28;20075;-73
2022/12/13 05:27:12;;;;;;;34.50;17.20;;;;;;;;;;5062458;28;20049;-73
2022/12/13 05:29:52;;;;;;;33.00;16.27;;;;;;;;;;5064048;28;20041;-73
2022/12/13 05:32:32;;;;;;;28.10;15.73;;;;;;;;;;5058332;28;20107;-72
2022/12/13 05:35:09;;;;;;;29.90;15.97;;;;;;;;;;5042646;28;20720;-73
2022/12/13 05:37:36;;;;;;;32.40;15.83;;;;;;;;;;5063027;28;20169;-73
2022/12/13 05:40:02;;;;;;;32.50;16.87;;;;;;;;;;5045485;28;20811;-73
2022/12/13 05:42:28;;;;;;;41.15;16.80;;;;;;;;;;5042607;28;20061;-73
2022/12/13 05:44:55;;;;;;;34.38;17.65;;;;;;;;;;5057888;28;20060;-73
2022/12/13 05:47:21;;;;;;;31.20;17.60;;;;;;;;;;5062474;28;20138;-73
2022/12/13 05:49:47;;;;;;;36.40;18.00;;;;;;;;;;5053940;28;20419;-73
2022/12/13 05:52:17;;;;;;;30.63;17.13;;;;;;;;;;5063356;28;20303;-73
2022/12/13 05:54:44;;;;;;;33.70;16.87;;;;;;;;;;5050971;28;20568;-73
2022/12/13 05:57:11;;;;;;;35.47;16.65;;;;;;;;;;5063744;28;20172;-73
2022/12/13 05:59:37;;;;;;;31.88;18.35;;;;;;;;;;5061488;28;20063;-73
2022/12/13 06:02:04;;;;;;;29.58;16.45;;;;;;;;;;5061719;28;20069;-73
2022/12/13 06:04:31;;;;;;;35.20;17.53;;;;;;;;;;5061394;28;20076;-73
2022/12/13 06:06:57;;;;;;;29.70;16.77;;;;;;;;;;5046128;28;20056;-73
2022/12/13 06:09:23;;;;;;;34.08;17.67;;;;;;;;;;5060104;28;20107;-73
2022/12/13 06:11:50;;;;;;;34.08;17.10;;;;;;;;;;5044242;28;20053;-73
2022/12/13 06:14:16;;;;;;;35.67;17.30;;;;;;;;;;5052172;28;20057;-73
2022/12/13 06:16:48;;;;;;;37.40;16.92;;;;;;;;;;5055985;28;20180;-72
2022/12/13 06:19:15;;;;;;;36.20;17.90;;;;;;;;;;5052538;28;20088;-72
2022/12/13 06:21:41;;;;;;;27.40;16.67;;;;;;;;;;5061029;28;20064;-72
2022/12/13 06:24:13;;;;;;;31.57;15.73;;;;;;;;;;5052584;28;20049;-72
2022/12/13 06:26:39;;;;;;;35.60;17.42;;;;;;;;;;5055406;28;20103;-72
2022/12/13 06:29:06;;;;;;;30.63;15.73;;;;;;;;;;5062047;28;20512;-71
2022/12/13 06:31:32;;;;;;;37.30;18.23;;;;;;;;;;5055719;28;20575;-72
2022/12/13 06:34:04;;;;;;;34.23;17.63;;;;;;;;;;5051831;28;20575;-72
2022/12/13 06:36:41;;;;;;;33.73;18.50;;;;;;;;;;5056360;28;20427;-72
2022/12/13 06:39:07;;;;;;;33.47;16.73;;;;;;;;;;5048292;28;20058;-72
2022/12/13 06:41:35;;;;;;;34.33;18.27;;;;;;;;;;5061952;28;20077;-72
2022/12/13 06:44:01;;;;;;;31.73;17.17;;;;;;;;;;5062363;28;20059;-72
2022/12/13 06:46:28;;;;;;;35.97;17.40;;;;;;;;;;5056074;28;20049;-72
2022/12/13 06:48:54;;;;;;;33.80;16.47;;;;;;;;;;5056011;28;20360;-68
2022/12/13 06:51:21;;;;;;;31.20;17.13;;;;;;;;;;5061761;28;20054;-70
2022/12/13 06:53:58;;;;;;;34.93;17.63;;;;;;;;;;5061461;28;20573;-69
2022/12/13 06:56:26;;;;;;;35.90;17.10;;;;;;;;;;5046478;28;20054;-70
2022/12/13 06:58:52;;;;;;;32.77;18.00;;;;;;;;;;5055747;28;20572;-69
2022/12/13 07:01:27;;;;;;;28.67;17.03;;;;;;;;;;5067729;28;20053;-68
2022/12/13 07:04:02;;;;;;;32.17;16.83;;;;;;;;;;5061305;28;20291;-69
2022/12/13 07:06:29;;;;;;;34.73;18.00;;;;;;;;;;5057262;28;20503;-70
2022/12/13 07:08:56;;;;;;;29.03;16.77;;;;;;;;;;5072077;28;20060;-70
2022/12/13 07:11:27;;;;;;;37.10;18.97;;;;;;;;;;5045808;28;20053;-70
2022/12/13 07:13:54;;;;;;;36.40;16.83;;;;;;;;;;5070382;28;20053;-70
2022/12/13 07:16:21;;;;;;;33.37;17.73;;;;;;;;;;5060064;28;20053;-70
2022/12/13 07:18:52;;;;;;;35.53;17.50;;;;;;;;;;5079171;28;20049;-70
2022/12/13 07:21:26;;;;;;;37.43;19.07;;;;;;;;;;5083320;28;20407;-69
2022/12/13 07:23:53;;;;;;;31.73;16.47;;;;;;;;;;5071090;28;20171;-69
2022/12/13 07:26:21;;;;;;;31.60;16.20;;;;;;;;;;5070317;28;20057;-69
2022/12/13 07:28:47;;;;;;;30.33;17.53;;;;;;;;;;5077041;28;20060;-69
2022/12/13 07:31:20;;;;;;;33.97;16.97;;;;;;;;;;5066561;28;20431;-69
2022/12/13 07:33:46;;;;;;;33.40;18.17;;;;;;;;;;5070693;28;20044;-69
2022/12/13 07:36:14;;;;;;;35.00;17.60;;;;;;;;;;5054641;28;20057;-68
2022/12/13 07:38:41;;;;;;;39.90;18.02;;;;;;;;;;5071643;28;20056;-68
2022/12/13 07:41:10;;;;;;;34.13;17.00;;;;;;;;;;5063652;28;20057;-70
2022/12/13 07:43:37;;;;;;;36.03;18.77;;;;;;;;;;5063678;28;20120;-69
2022/12/13 07:46:04;;;;;;;32.37;16.73;;;;;;;;;;5063615;28;20049;-71
2022/12/13 07:48:32;;;;;;;33.50;17.40;;;;;;;;;;5070906;28;20045;-71
2022/12/13 07:51:02;;;;;;;31.93;17.50;;;;;;;;;;5067509;28;20132;-70
2022/12/13 07:53:29;;;;;;;29.67;16.60;;;;;;;;;;5067342;28;20133;-69
2022/12/13 07:56:03;;;;;;;29.87;16.57;;;;;;;;;;5061917;28;20081;-70
2022/12/13 07:58:29;;;;;;;34.40;17.90;;;;;;;;;;5056277;28;20049;-70
2022/12/13 08:01:00;;;;;;;33.60;17.87;;;;;;;;;;5044159;28;20537;-70
2022/12/13 08:03:27;;;;;;;31.40;17.93;;;;;;;;;;5055960;28;20136;-70
2022/12/13 08:06:04;;;;;;;38.03;18.73;;;;;;;;;;5052614;28;20127;-70
2022/12/13 08:08:31;;;;;;;30.30;17.20;;;;;;;;;;5051746;28;20131;-70
2022/12/13 08:11:01;;;;;;;33.13;18.97;;;;;;;;;;5052477;28;20048;-70
2022/12/13 08:13:27;;;;;;;34.60;17.87;;;;;;;;;;5060801;28;20060;-70
2022/12/13 08:16:00;;;;;;;31.67;17.83;;;;;;;;;;5053291;28;20646;-70
2022/12/13 08:18:28;;;;;;;39.53;20.07;;;;;;;;;;5060382;28;20056;-70
2022/12/13 08:20:58;;;;;;;30.87;16.63;;;;;;;;;;5074036;28;20147;-70
2022/12/13 08:23:24;;;;;;;31.30;16.70;;;;;;;;;;5074773;28;20470;-69
2022/12/13 08:25:52;;;;;;;34.57;18.90;;;;;;;;;;5079671;28;20059;-71
2022/12/13 08:28:18;;;;;;;41.17;19.17;;;;;;;;;;5064970;28;20149;-69
2022/12/13 08:30:45;;;;;;;35.20;19.43;;;;;;;;;;5065711;28;20135;-69
2022/12/13 08:33:11;;;;;;;32.87;18.50;;;;;;;;;;5067607;28;20100;-72
2022/12/13 08:35:38;;;;;;;38.93;19.13;;;;;;;;;;5072362;28;20041;-70
2022/12/13 08:38:06;;;;;;;41.10;19.00;;;;;;;;;;5067467;28;20056;-70
2022/12/13 08:40:33;;;;;;;39.07;20.63;;;;;;;;;;5058502;28;20054;-70
2022/12/13 08:43:00;;;;;;;38.17;19.63;;;;;;;;;;5081488;28;20098;-71
2022/12/13 08:45:26;;;;;;;32.80;18.57;;;;;;;;;;5064305;28;20053;-70
2022/12/13 08:47:53;;;;;;;34.63;19.23;;;;;;;;;;5064193;28;20063;-70
2022/12/13 08:50:19;;;;;;;32.30;18.20;;;;;;;;;;5071550;28;20063;-71
2022/12/13 08:52:45;;;;;;;40.87;20.30;;;;;;;;;;5084012;28;20049;-70
2022/12/13 08:55:13;;;;;;;37.77;20.90;;;;;;;;;;5064817;28;20053;-69
2022/12/13 08:57:40;;;;;;;42.43;20.57;;;;;;;;;;5049455;28;20057;-69
2022/12/13 09:00:10;;;;;;;40.13;20.90;;;;;;;;;;5062008;28;20059;-69
2022/12/13 09:02:37;;;;;;;43.30;20.63;;;;;;;;;;5058848;28;20049;-69
2022/12/13 09:05:06;;;;;;;33.00;20.67;;;;;;;;;;5075683;28;20483;-71
2022/12/13 09:07:34;;;;;;;51.80;21.97;;;;;;;;;;5064430;28;20059;-68
2022/12/13 09:10:01;;;;;;;34.67;19.53;;;;;;;;;;5053618;28;20053;-71
2022/12/13 09:12:47;;;;;;;38.17;20.43;;;;;;;;;;5067886;28;20068;-70
2022/12/13 09:15:13;;;;;;;36.90;19.20;;;;;;;;;;5062352;28;20052;-70
2022/12/13 09:17:48;;;;;;;42.97;20.13;;;;;;;;;;5071420;28;20060;-70
2022/12/13 09:20:18;;;;;;;38.97;20.83;;;;;;;;;;5057006;28;20140;-70
2022/12/13 09:22:56;;;;;;;35.90;18.77;;;;;;;;;;5060548;28;20049;-71
2022/12/13 09:25:28;;;;;;;34.90;19.07;;;;;;;;;;5063257;28;20140;-71
2022/12/13 09:28:02;;;;;;;48.17;20.70;;;;;;;;;;5064113;28;20203;-71
2022/12/13 09:30:28;;;;;;;40.50;21.20;;;;;;;;;;5078797;28;20051;-71
2022/12/13 09:32:57;;;;;;;35.87;20.37;;;;;;;;;;5061042;28;20072;-71
2022/12/13 09:35:43;;;;;;;34.35;21.05;;;;;;;;;;5051633;28;20531;-70
2022/12/13 09:38:09;;;;;;;38.95;21.08;;;;;;;;;;5058754;28;20045;-70
2022/12/13 09:40:37;;;;;;;38.00;20.37;;;;;;;;;;5048855;28;20053;-72
2022/12/13 09:43:04;;;;;;;42.60;21.10;;;;;;;;;;5057299;28;20133;-70
2022/12/13 09:45:49;;;;;;;35.97;18.90;;;;;;;;;;5063340;28;20056;-70
2022/12/13 09:48:19;;;;;;;34.00;20.20;;;;;;;;;;5057859;28;20500;-69
2022/12/13 09:50:49;;;;;;;41.03;22.57;;;;;;;;;;5049665;28;20515;-70
2022/12/13 09:53:35;;;;;;;38.97;21.60;;;;;;;;;;5053351;28;20529;-70
2022/12/13 09:56:02;;;;;;;43.38;22.42;;;;;;;;;;5051656;28;20049;-69
2022/12/13 09:58:36;;;;;;;43.47;21.23;;;;;;;;;;5048134;28;20059;-70
2022/12/13 10:01:04;;;;;;;37.72;20.85;;;;;;;;;;5052611;28;20700;-69
2022/12/13 10:03:30;;;;;;;44.50;19.97;;;;;;;;;;5057312;28;20143;-69
2022/12/13 10:06:11;;;;;;;38.67;21.97;;;;;;;;;;5055611;28;20119;-69
2022/12/13 10:08:39;;;;;;;43.80;20.73;;;;;;;;;;5054051;28;20053;-70
2022/12/13 10:11:06;;;;;;;41.57;21.53;;;;;;;;;;5050088;28;20072;-69
2022/12/13 10:13:41;;;;;;;38.40;20.70;;;;;;;;;;5053589;28;20084;-69
2022/12/13 10:16:11;;;;;;;44.60;23.70;;;;;;;;;;5053743;28;20064;-70
2022/12/13 10:18:39;;;;;;;36.73;21.53;;;;;;;;;;5059397;28;20048;-70
2022/12/13 10:21:21;;;;;;;39.80;21.45;;;;;;;;;;5081842;28;20099;-71
2022/12/13 10:23:47;;;;;;;40.00;20.77;;;;;;;;;;5080914;28;20051;-70
2022/12/13 10:26:35;;;;;;;38.85;21.23;;;;;;;;;;5057682;28;20220;-70
2022/12/13 10:29:05;;;;;;;38.40;22.35;;;;;;;;;;5055099;28;20379;-71
2022/12/13 10:31:39;;;;;;;34.53;20.73;;;;;;;;;;5048052;28;20052;-71
2022/12/13 10:34:14;;;;;;;38.42;20.58;;;;;;;;;;5049778;28;20119;-70
2022/12/13 10:36:42;;;;;;;40.13;21.77;;;;;;;;;;5049051;28;20053;-71
2022/12/13 10:39:15;;;;;;;41.80;22.52;;;;;;;;;;5050345;28;20937;-71
2022/12/13 10:41:41;;;;;;;40.28;21.80;;;;;;;;;;5052582;28;20056;-71
2022/12/13 10:44:13;;;;;;;37.33;21.23;;;;;;;;;;5053886;28;20103;-71
2022/12/13 10:46:50;;;;;;;41.63;21.50;;;;;;;;;;5047351;28;20049;-69
2022/12/13 10:49:23;;;;;;;37.92;20.38;;;;;;;;;;5060017;28;20061;-69
2022/12/13 10:51:52;;;;;;;38.78;21.67;;;;;;;;;;5062655;28;20053;-70
2022/12/13 10:54:24;;;;;;;37.63;20.80;;;;;;;;;;5059380;28;20064;-69
2022/12/13 10:56:52;;;;;;;33.93;20.20;;;;;;;;;;5054125;28;20061;-67
2022/12/13 10:59:19;;;;;;;37.03;20.77;;;;;;;;;;5057116;28;20056;-70
2022/12/13 11:01:46;;;;;;;39.43;21.00;;;;;;;;;;5062658;28;20068;-70
2022/12/13 11:04:18;;;;;;;38.63;20.70;;;;;;;;;;5062390;28;20107;-70
2022/12/13 11:06:52;;;;;;;39.58;21.65;;;;;;;;;;5064332;28;20053;-70
2022/12/13 11:09:26;;;;;;;38.15;20.73;;;;;;;;;;5076656;28;20060;-70
2022/12/13 11:11:53;;;;;;;38.35;20.23;;;;;;;;;;5065418;28;20049;-70
2022/12/13 11:14:26;;;;;;;43.90;20.80;;;;;;;;;;5065634;28;20057;-70
2022/12/13 11:17:08;;;;;;;39.67;20.45;;;;;;;;;;5071541;28;20056;-70
2022/12/13 11:19:44;;;;;;;37.67;19.38;;;;;;;;;;5081600;28;20057;-70
2022/12/13 11:22:18;;;;;;;38.70;21.77;;;;;;;;;;5062166;28;20063;-70
2022/12/13 11:24:48;;;;;;;41.47;19.45;;;;;;;;;;5070446;28;20049;-70
2022/12/13 11:27:23;;;;;;;38.85;20.55;;;;;;;;;;5067597;28;20072;-70
2022/12/13 11:29:55;;;;;;;37.30;19.85;;;;;;;;;;5065644;28;20119;-70
2022/12/13 11:32:34;;;;;;;35.15;19.80;;;;;;;;;;5069459;28;20169;-70
2022/12/13 11:35:01;;;;;;;40.78;20.50;;;;;;;;;;5075632;28;20088;-70
2022/12/13 11:37:35;;;;;;;40.03;20.95;;;;;;;;;;5049424;28;20049;-69
2022/12/13 11:40:11;;;;;;;40.08;20.73;;;;;;;;;;5075345;28;20049;-69
2022/12/13 11:42:39;;;;;;;42.38;23.75;;;;;;;;;;5069059;28;20056;-70
2022/12/13 11:45:06;;;;;;;38.90;21.00;;;;;;;;;;5061712;28;20065;-70
2022/12/13 11:47:36;;;;;;;43.70;21.27;;;;;;;;;;5064930;28;20261;-70
2022/12/13 11:50:04;;;;;;;40.03;21.17;;;;;;;;;;5060578;28;21053;-70
2022/12/13 11:52:35;;;;;;;44.28;20.15;;;;;;;;;;5063655;28;20526;-69
2022/12/13 11:55:04;;;;;;;31.85;18.90;;;;;;;;;;5067119;28;20056;-70
2022/12/13 11:57:45;;;;;;;42.50;21.23;;;;;;;;;;5062409;28;20577;-70
2022/12/13 12:00:30;;;;;;;41.40;22.00;;;;;;;;;;5063359;28;20049;-68
2022/12/13 12:03:17;;;;;;;46.33;23.20;;;;;;;;;;5062040;28;20053;-69
2022/12/13 12:05:48;;;;;;;36.50;21.45;;;;;;;;;;5061309;28;20144;-69
2022/12/13 12:08:43;;;;;;;38.20;21.85;;;;;;;;;;5056729;28;20041;-69
2022/12/13 12:11:16;;;;;;;41.00;20.42;;;;;;;;;;5056403;28;20117;-69
2022/12/13 12:13:46;;;;;;;33.60;19.73;;;;;;;;;;5044922;28;20049;-69
2022/12/13 12:16:27;;;;;;;38.15;18.73;;;;;;;;;;5050025;28;20625;-68
2022/12/13 12:18:53;;;;;;;36.85;20.23;;;;;;;;;;5043201;28;20052;-68
2022/12/13 12:21:37;;;;;;;32.03;18.52;;;;;;;;;;5056297;28;20049;-69
2022/12/13 12:24:29;;;;;;;39.40;19.80;;;;;;;;;;5061256;28;20541;-69
2022/12/13 12:26:55;;;;;;;37.88;19.85;;;;;;;;;;5044560;28;20053;-69
2022/12/13 12:29:41;;;;;;;35.95;19.40;;;;;;;;;;5050973;28;20095;-69
2022/12/13 12:32:13;;;;;;;36.13;20.23;;;;;;;;;;5047618;28;20057;-69
2022/12/13 12:34:46;;;;;;;37.30;20.88;;;;;;;;;;5045721;28;20534;-69
2022/12/13 12:37:25;;;;;;;36.55;19.55;;;;;;;;;;5067789;28;20591;-70
2022/12/13 12:40:20;;;;;;;32.97;18.77;;;;;;;;;;5043818;28;20060;-69
2022/12/13 12:42:52;;;;;;;32.42;17.05;;;;;;;;;;5039972;28;20050;-69
2022/12/13 12:46:05;;;;;;;38.03;19.33;;;;;;;;;;5041466;28;20961;-70
2022/12/13 12:48:50;;;;;;;32.30;17.73;;;;;;;;;;5043705;28;20045;-69
2022/12/13 12:51:36;;;;;;;30.48;17.25;;;;;;;;;;5046303;28;20060;-70
2022/12/13 12:54:10;;;;;;;35.05;18.83;;;;;;;;;;5041781;28;20054;-69
2022/12/13 12:57:00;;;;;;;33.00;19.70;;;;;;;;;;5045079;28;20389;-69
2022/12/13 12:59:43;;;;;;;33.42;18.63;;;;;;;;;;5036951;28;20061;-69
2022/12/13 13:02:09;;;;;;;35.25;19.15;;;;;;;;;;5044605;28;20060;-69
2022/12/13 13:04:41;;;;;;;37.25;19.38;;;;;;;;;;5039317;28;20104;-69
2022/12/13 13:07:20;;;;;;;34.58;19.38;;;;;;;;;;5039544;28;20147;-68
2022/12/13 13:09:49;;;;;;;33.83;19.17;;;;;;;;;;5040833;28;20244;-68
2022/12/13 13:12:20;;;;;;;30.42;17.90;;;;;;;;;;5042565;28;20063;-68
2022/12/13 13:14:56;;;;;;;38.97;19.80;;;;;;;;;;5043525;28;20052;-70
2022/12/13 13:17:22;;;;;;;35.80;19.08;;;;;;;;;;5039864;28;20049;-70
2022/12/13 13:19:53;;;;;;;34.80;18.98;;;;;;;;;;5042004;28;20057;-69
2022/12/13 13:22:34;;;;;;;;;;;;;;;;;;5046587;28;20050;-68
2022/12/13 13:25:08;;;;;;;36.92;19.25;;;;;;;;;;5059218;28;45810;-68
2022/12/13 13:27:44;;;;;;;36.25;20.63;;;;;;;;;;5060997;28;20060;-68
2022/12/13 13:30:21;;;;;;;35.72;19.02;;;;;;;;;;5066577;28;20765;-69
2022/12/13 13:32:48;;;;;;;37.00;19.75;;;;;;;;;;5068466;28;20045;-69
2022/12/13 13:35:30;;;;;;;40.83;20.10;;;;;;;;;;5056454;28;20415;-69
2022/12/13 13:38:17;;;;;;;31.17;18.45;;;;;;;;;;5057650;28;20759;-68
2022/12/13 13:40:43;;;;;;;40.83;19.85;;;;;;;;;;5049949;28;20049;-67
2022/12/13 13:43:09;;;;;;;36.80;20.85;;;;;;;;;;5053626;28;20080;-67
2022/12/13 13:45:48;;;;;;;41.40;22.58;;;;;;;;;;5046408;28;20045;-68
2022/12/13 13:48:20;;;;;;;40.60;20.65;;;;;;;;;;5054400;28;20124;-68
2022/12/13 13:51:05;;;;;;;41.63;22.15;;;;;;;;;;5054555;28;20057;-68
2022/12/13 13:54:01;;;;;;;37.97;22.73;;;;;;;;;;5058627;28;20140;-70
2022/12/13 13:56:30;;;;;;;36.22;20.92;;;;;;;;;;5056914;28;20148;-68
2022/12/13 13:59:03;;;;;;;43.50;21.73;;;;;;;;;;5043861;28;20057;-68
2022/12/13 14:01:39;;;;;;;35.90;20.00;;;;;;;;;;5050570;28;20056;-68
2022/12/13 14:04:25;;;;;;;39.92;20.95;;;;;;;;;;5044824;28;20052;-68
2022/12/13 14:07:11;;;;;;;34.45;19.90;;;;;;;;;;5060705;28;20060;-67
2022/12/13 14:09:45;;;;;;;35.20;20.53;;;;;;;;;;5042305;28;20053;-68
2022/12/13 14:12:14;;;;;;;37.65;19.50;;;;;;;;;;5058007;28;20052;-68
2022/12/13 14:15:03;;;;;;;41.45;20.25;;;;;;;;;;5054151;28;20045;-67
2022/12/13 14:17:31;;;;;;;37.97;19.83;;;;;;;;;;5057740;28;20080;-70
2022/12/13 14:19:58;;;;;;;36.50;18.45;;;;;;;;;;5055243;28;20057;-71
2022/12/13 14:22:24;;;;;;;42.40;20.20;;;;;;;;;;5060458;28;20045;-71
2022/12/13 14:24:50;;;;;;;33.55;18.63;;;;;;;;;;5053666;28;20142;-71
2022/12/13 14:27:17;;;;;;;35.10;18.95;;;;;;;;;;5047211;28;20591;-71
2022/12/13 14:29:44;;;;;;;40.63;20.30;;;;;;;;;;5042913;28;20059;-68
2022/12/13 14:32:21;;;;;;;37.53;19.23;;;;;;;;;;5042405;28;20058;-69
2022/12/13 14:34:53;;;;;;;34.22;19.80;;;;;;;;;;5041255;28;20064;-70
2022/12/13 14:37:26;;;;;;;38.97;21.10;;;;;;;;;;5043145;28;20557;-70
2022/12/13 14:39:53;;;;;;;35.90;21.08;;;;;;;;;;5045135;28;20050;-70
2022/12/13 14:42:23;;;;;;;40.20;19.48;;;;;;;;;;5044813;28;20510;-70
2022/12/13 14:44:49;;;;;;;31.88;18.50;;;;;;;;;;5037904;28;21483;-71
2022/12/13 14:47:16;;;;;;;32.70;18.58;;;;;;;;;;5055732;28;20049;-71